createdAt,value
2019-03-12T00:01:19.799Z,-12.02
2019-03-12T00:03:46.027Z,-11.98
2019-03-12T00:06:12.268Z,-11.88
2019-03-12T00:08:38.495Z,-11.91
2019-03-12T00:11:04.744Z,-11.96
2019-03-12T00:13:30.974Z,-11.95
2019-03-12T00:15:57.216Z,-11.77
2019-03-12T00:18:23.460Z,-11.85
2019-03-12T00:20:49.686Z,-11.96
2019-03-12T00:23:15.924Z,-11.95
2019-03-12T00:25:42.147Z,-12.04
2019-03-12T00:28:08.474Z,-12.11
2019-03-12T00:30:34.718Z,-12.22
2019-03-12T00:33:00.986Z,-12.29
2019-03-12T00:35:27.218Z,-12.31
2019-03-12T00:37:53.455Z,-12.40
2019-03-12T00:40:19.705Z,-12.46
2019-03-12T00:42:45.974Z,-12.44
2019-03-12T00:45:12.191Z,-12.44
2019-03-12T00:47:38.439Z,-12.42
2019-03-12T00:50:45.975Z,-12.44
2019-03-12T00:53:12.212Z,-12.36
2019-03-12T00:55:38.471Z,-12.23
2019-03-12T00:58:04.705Z,-12.33
2019-03-12T01:00:30.949Z,-12.44
2019-03-12T01:02:57.204Z,-12.45
2019-03-12T01:05:23.437Z,-12.43
2019-03-12T01:07:49.689Z,-12.46
2019-03-12T01:10:15.922Z,-12.49
2019-03-12T01:12:42.196Z,-12.55
2019-03-12T01:18:21.939Z,-12.71
2019-03-12T01:20:48.188Z,-12.79
2019-03-12T01:23:14.438Z,-12.81
2019-03-12T01:25:40.667Z,-12.78
2019-03-12T01:28:06.924Z,-12.80
2019-03-12T01:30:33.159Z,-12.82
2019-03-12T01:32:59.376Z,-12.84
2019-03-12T01:35:25.624Z,-12.96
2019-03-12T01:37:51.851Z,-13.00
2019-03-12T01:40:18.092Z,-12.99
2019-03-12T01:42:44.318Z,-12.92
2019-03-12T01:45:51.880Z,-12.94
2019-03-12T01:48:18.088Z,-12.94
2019-03-12T01:50:44.324Z,-12.89
2019-03-12T01:53:10.553Z,-12.91
2019-03-12T01:55:36.805Z,-12.96
2019-03-12T01:58:03.054Z,-13.03
2019-03-12T02:00:29.306Z,-13.09
2019-03-12T02:02:55.540Z,-13.13
2019-03-12T02:05:21.776Z,-13.20
2019-03-12T02:07:48.018Z,-13.27
2019-03-12T02:13:08.563Z,-13.28
2019-03-12T02:15:34.803Z,-13.33
2019-03-12T02:18:01.035Z,-13.36
2019-03-12T02:20:27.332Z,-13.44
2019-03-12T02:22:53.637Z,-13.47
2019-03-12T02:25:19.890Z,-13.51
2019-03-12T02:27:46.119Z,-13.49
2019-03-12T02:30:53.656Z,-13.48
2019-03-12T02:33:19.906Z,-13.53
2019-03-12T02:35:46.172Z,-13.55
2019-03-12T02:38:12.408Z,-13.61
2019-03-12T02:40:38.635Z,-13.62
2019-03-12T02:43:04.874Z,-13.66
2019-03-12T02:45:31.132Z,-13.67
2019-03-12T02:47:57.351Z,-13.65
2019-03-12T02:50:23.585Z,-13.63
2019-03-12T02:52:49.806Z,-13.63
2019-03-12T02:55:16.109Z,-13.64
2019-03-12T02:57:42.396Z,-13.71
2019-03-12T03:00:28.381Z,-13.77
2019-03-12T03:02:54.629Z,-13.75
2019-03-12T03:05:20.971Z,-13.72
2019-03-12T03:10:48.277Z,-13.79
2019-03-12T03:13:14.513Z,-13.73
2019-03-12T03:18:28.353Z,-13.72
2019-03-12T03:20:54.593Z,-13.77
2019-03-12T03:23:20.832Z,-13.83
2019-03-12T03:25:47.061Z,-13.83
2019-03-12T03:28:13.339Z,-13.88
2019-03-12T03:30:39.534Z,-13.93
2019-03-12T03:33:05.891Z,-13.93
2019-03-12T03:35:32.191Z,-13.93
2019-03-12T03:37:58.426Z,-13.91
2019-03-12T03:40:24.661Z,-13.96
2019-03-12T03:42:50.901Z,-14.10
2019-03-12T03:48:11.607Z,-14.14
2019-03-12T03:50:37.833Z,-14.18
2019-03-12T03:53:04.086Z,-14.21
2019-03-12T03:55:30.315Z,-14.31
2019-03-12T03:57:56.544Z,-14.37
2019-03-12T04:01:04.104Z,-14.44
2019-03-12T04:03:30.337Z,-14.55
2019-03-12T04:05:56.568Z,-14.76
2019-03-12T04:08:22.790Z,-14.92
2019-03-12T04:10:49.024Z,-15.04
2019-03-12T04:13:15.256Z,-15.11
2019-03-12T04:15:41.503Z,-15.12
2019-03-12T04:18:07.760Z,-15.13
2019-03-12T04:20:33.974Z,-15.18
2019-03-12T04:23:00.223Z,-15.27
2019-03-12T04:25:26.468Z,-15.34
2019-03-12T04:27:52.688Z,-15.46
2019-03-12T04:30:19.150Z,-15.52
2019-03-12T04:32:45.354Z,-15.55
2019-03-12T04:35:52.889Z,-15.66
2019-03-12T04:38:19.120Z,-15.71
2019-03-12T04:40:45.372Z,-15.74
2019-03-12T04:43:11.613Z,-15.76
2019-03-12T04:45:37.852Z,-15.65
2019-03-12T04:48:04.074Z,-15.55
2019-03-12T04:50:30.315Z,-15.48
2019-03-12T04:52:56.539Z,-15.39
2019-03-12T04:55:22.767Z,-15.40
2019-03-12T04:57:49.005Z,-15.32
2019-03-12T05:00:35.119Z,-15.36
2019-03-12T05:03:01.398Z,-15.93
2019-03-12T05:05:27.622Z,-15.40
2019-03-12T05:07:53.856Z,-15.54
2019-03-12T05:10:20.077Z,-15.66
2019-03-12T05:12:46.318Z,-15.73
2019-03-12T05:15:32.293Z,-15.72
2019-03-12T05:17:58.540Z,-15.84
2019-03-12T05:20:24.774Z,-15.89
2019-03-12T05:22:51.020Z,-15.84
2019-03-12T05:25:17.246Z,-15.69
2019-03-12T05:27:43.501Z,-15.60
2019-03-12T05:30:29.467Z,-15.58
2019-03-12T05:32:55.712Z,-15.53
2019-03-12T05:35:21.939Z,-15.66
2019-03-12T05:37:48.178Z,-15.64
2019-03-12T05:40:14.703Z,-15.65
2019-03-12T05:42:40.949Z,-15.75
2019-03-12T05:45:26.926Z,-15.73
2019-03-12T05:47:53.273Z,-15.74
2019-03-12T05:53:52.821Z,-15.44
2019-03-12T05:56:19.050Z,-15.32
2019-03-12T05:58:45.353Z,-15.20
2019-03-12T06:01:11.623Z,-15.06
2019-03-12T06:03:37.891Z,-14.93
2019-03-12T06:06:04.115Z,-14.78
2019-03-12T06:08:30.358Z,-14.64
2019-03-12T06:10:56.579Z,-14.51
2019-03-12T06:13:22.823Z,-14.31
2019-03-12T06:15:49.048Z,-14.07
2019-03-12T06:18:15.291Z,-13.77
2019-03-12T06:20:41.517Z,-13.41
2019-03-12T06:23:07.760Z,-13.22
2019-03-12T06:25:33.987Z,-13.03
2019-03-12T06:28:00.212Z,-12.72
2019-03-12T06:33:23.966Z,-12.17
2019-03-12T06:36:07.817Z,-11.96
2019-03-12T06:38:53.811Z,-11.75
2019-03-12T06:41:39.813Z,-11.55
2019-03-12T06:44:25.803Z,-11.31
2019-03-12T06:47:11.800Z,-11.04
2019-03-12T06:49:57.784Z,-10.70
2019-03-12T06:52:43.797Z,-10.36
2019-03-12T06:55:29.783Z,-10.16
2019-03-12T06:58:35.644Z,-9.91
2019-03-12T07:01:21.628Z,-9.61
2019-03-12T07:04:07.631Z,-9.23
2019-03-12T07:06:53.614Z,-8.88
2019-03-12T07:09:39.617Z,-8.63
2019-03-12T07:12:25.600Z,-8.28
2019-03-12T07:15:11.609Z,-8.06
2019-03-12T07:17:57.595Z,-8.00
2019-03-12T07:23:20.969Z,-7.53
2019-03-12T07:26:06.986Z,-7.18
2019-03-12T07:34:18.472Z,-6.15
2019-03-12T07:37:04.558Z,-5.79
2019-03-12T07:42:38.159Z,-5.14
2019-03-12T07:51:12.392Z,-4.35
2019-03-12T07:53:59.666Z,-4.11
2019-03-12T07:59:33.915Z,-3.70
2019-03-12T08:02:19.905Z,-3.60
2019-03-12T08:07:39.828Z,-3.23
2019-03-12T08:18:35.692Z,-2.69
2019-03-12T08:21:22.853Z,-2.50
2019-03-12T08:26:56.577Z,-1.93
2019-03-12T08:29:42.562Z,-1.68
2019-03-12T08:32:28.575Z,-1.45
2019-03-12T08:40:35.979Z,-0.85
2019-03-12T08:43:21.976Z,-0.57
2019-03-12T08:46:07.969Z,-0.53
2019-03-12T08:51:31.374Z,-0.77
2019-03-12T08:56:51.425Z,-1.13
2019-03-12T08:59:37.413Z,-1.00
2019-03-12T09:02:44.980Z,-0.93
2019-03-12T09:05:30.997Z,-1.03
2019-03-12T09:08:17.013Z,-0.47
2019-03-12T09:13:52.529Z,0.11
2019-03-12T09:19:26.087Z,0.63
2019-03-12T09:22:12.101Z,0.83
2019-03-12T09:24:58.089Z,0.67
2019-03-12T09:27:44.095Z,0.68
2019-03-12T09:36:07.789Z,1.36
2019-03-12T09:38:53.788Z,1.49
2019-03-12T09:44:27.442Z,1.36
2019-03-12T09:47:13.461Z,1.47
2019-03-12T09:49:59.471Z,1.64
2019-03-12T09:52:45.449Z,1.23
2019-03-12T09:55:31.460Z,1.01
2019-03-12T09:58:17.441Z,1.55
2019-03-12T10:01:03.450Z,2.02
2019-03-12T10:03:49.436Z,2.25
2019-03-12T10:06:35.453Z,1.38
2019-03-12T10:09:21.432Z,1.22
2019-03-12T10:14:45.115Z,1.48
2019-03-12T10:17:31.112Z,2.02
2019-03-12T10:28:12.496Z,2.27
2019-03-12T10:30:58.485Z,2.65
2019-03-12T10:33:44.497Z,1.73
2019-03-12T10:39:57.677Z,1.81
2019-03-12T10:42:43.675Z,2.17
2019-03-12T10:50:44.494Z,2.51
2019-03-12T10:53:10.723Z,2.15
2019-03-12T10:55:36.976Z,2.21
2019-03-12T10:58:03.225Z,1.99
2019-03-12T11:00:29.501Z,2.21
2019-03-12T11:02:55.744Z,2.69
2019-03-12T11:05:22.062Z,2.16
2019-03-12T11:07:48.338Z,2.36
2019-03-12T11:10:55.891Z,2.59
2019-03-12T11:13:22.121Z,2.98
2019-03-12T11:15:48.380Z,3.30
2019-03-12T11:18:14.639Z,2.84
2019-03-12T11:20:40.875Z,2.19
2019-03-12T11:23:07.167Z,2.01
2019-03-12T11:25:33.396Z,2.35
2019-03-12T11:27:59.626Z,2.84
2019-03-12T11:30:25.885Z,3.05
2019-03-12T11:32:52.122Z,3.17
2019-03-12T11:35:18.358Z,3.44
2019-03-12T11:37:44.633Z,3.65
2019-03-12T11:40:52.273Z,3.89
2019-03-12T11:43:18.510Z,3.94
2019-03-12T11:45:44.921Z,3.70
2019-03-12T11:48:11.184Z,3.60
2019-03-12T11:50:37.482Z,3.39
2019-03-12T11:53:03.964Z,3.09
2019-03-12T11:55:31.929Z,2.69
2019-03-12T11:57:58.193Z,2.37
2019-03-12T12:01:05.906Z,2.23
2019-03-12T12:03:32.283Z,2.12
2019-03-12T12:05:58.525Z,2.02
2019-03-12T12:08:24.777Z,1.61
2019-03-12T12:10:51.095Z,1.62
2019-03-12T12:13:17.331Z,1.84
2019-03-12T12:15:43.564Z,1.71
2019-03-12T12:18:09.814Z,1.70
2019-03-12T12:20:36.040Z,1.65
2019-03-12T12:23:02.375Z,1.44
2019-03-12T12:25:28.627Z,1.41
2019-03-12T12:27:54.854Z,1.45
2019-03-12T12:31:02.390Z,1.43
2019-03-12T12:33:28.630Z,1.31
2019-03-12T12:35:54.962Z,1.14
2019-03-12T12:38:21.215Z,1.28
2019-03-12T12:40:47.441Z,1.25
2019-03-12T12:43:13.700Z,1.66
2019-03-12T12:45:39.930Z,1.87
2019-03-12T12:48:06.148Z,1.77
2019-03-12T12:50:32.393Z,1.39
2019-03-12T12:52:58.641Z,1.22
2019-03-12T12:55:24.856Z,1.20
2019-03-12T12:57:51.107Z,1.23
2019-03-12T13:00:38.509Z,1.02
2019-03-12T13:03:05.231Z,0.92
2019-03-12T13:05:31.456Z,0.88
2019-03-12T13:07:57.702Z,0.84
2019-03-12T13:10:43.674Z,0.79
2019-03-12T13:13:09.914Z,0.65
2019-03-12T13:15:36.148Z,0.46
2019-03-12T13:18:02.372Z,0.34
2019-03-12T13:20:28.613Z,0.27
2019-03-12T13:22:54.836Z,0.17
2019-03-12T13:25:21.080Z,0.10
2019-03-12T13:27:47.398Z,0.06
2019-03-12T13:30:54.935Z,-0.02
2019-03-12T13:33:21.161Z,-0.08
2019-03-12T13:35:49.437Z,-0.23
2019-03-12T13:38:15.549Z,-0.29
2019-03-12T13:40:41.807Z,-0.38
2019-03-12T13:43:08.009Z,-0.50
2019-03-12T13:45:34.287Z,-0.54
2019-03-12T13:48:00.777Z,-0.61
2019-03-12T13:51:08.444Z,-0.75
2019-03-12T13:53:34.789Z,-0.90
2019-03-12T13:56:01.037Z,-1.03
2019-03-12T13:58:27.266Z,-1.12
2019-03-12T14:00:53.487Z,-1.22
2019-03-12T14:03:19.732Z,-1.24
2019-03-12T14:05:45.962Z,-1.28
2019-03-12T14:08:12.200Z,-1.35
2019-03-12T14:10:38.459Z,-1.43
2019-03-12T14:13:04.806Z,-1.49
2019-03-12T14:15:50.880Z,-1.58
2019-03-12T14:18:17.130Z,-1.76
2019-03-12T14:26:57.698Z,-1.90
2019-03-12T14:29:23.967Z,-1.96
2019-03-12T14:31:50.197Z,-2.02
2019-03-12T14:34:16.463Z,-2.00
2019-03-12T14:36:42.702Z,-2.04
2019-03-12T14:39:08.934Z,-2.06
2019-03-12T14:41:35.172Z,-2.07
2019-03-12T14:44:01.405Z,-2.09
2019-03-12T14:46:27.639Z,-2.14
2019-03-12T14:49:35.182Z,-2.22
2019-03-12T14:52:42.746Z,-2.24
2019-03-12T14:55:09.014Z,-2.33
2019-03-12T14:57:35.364Z,-2.39
2019-03-12T15:00:01.683Z,-2.42
2019-03-12T15:02:27.936Z,-2.53
2019-03-12T15:04:54.167Z,-2.66
2019-03-12T15:07:20.424Z,-2.74
2019-03-12T15:09:46.772Z,-2.76
2019-03-12T15:12:12.995Z,-2.89
2019-03-12T15:14:39.244Z,-2.94
2019-03-12T15:17:05.472Z,-2.91
2019-03-12T15:19:31.764Z,-2.93
2019-03-12T15:21:57.999Z,-2.93
2019-03-12T15:24:24.235Z,-3.00
2019-03-12T15:26:50.459Z,-3.02
2019-03-12T15:29:36.467Z,-3.03
2019-03-12T15:32:04.530Z,-3.09
2019-03-12T15:34:30.865Z,-3.17
2019-03-12T15:36:57.119Z,-3.22
2019-03-12T15:39:23.380Z,-3.31
2019-03-12T15:44:43.853Z,-3.48
2019-03-12T15:47:10.100Z,-3.55
2019-03-12T15:49:37.799Z,-3.64
2019-03-12T15:52:04.480Z,-3.73
2019-03-12T15:54:30.708Z,-3.80
2019-03-12T15:56:56.950Z,-3.86
2019-03-12T15:59:23.184Z,-3.96
2019-03-12T16:01:49.443Z,-4.08
2019-03-12T16:04:15.718Z,-4.21
2019-03-12T16:06:42.001Z,-4.31
2019-03-12T16:09:08.241Z,-4.38
2019-03-12T16:11:34.493Z,-4.43
2019-03-12T16:14:00.746Z,-4.52
2019-03-12T16:16:26.997Z,-4.57
2019-03-12T16:18:53.239Z,-4.62
2019-03-12T16:21:19.469Z,-4.68
2019-03-12T16:23:45.716Z,-4.76
2019-03-12T16:26:11.943Z,-4.86
2019-03-12T16:28:38.191Z,-5.02
2019-03-12T16:31:04.414Z,-5.16
2019-03-12T16:33:30.653Z,-5.30
2019-03-12T16:35:56.952Z,-5.44
2019-03-12T16:38:23.212Z,-5.61
2019-03-12T16:40:49.447Z,-5.81
2019-03-12T16:43:15.700Z,-5.98
2019-03-12T16:45:41.946Z,-6.11
2019-03-12T16:48:08.172Z,-6.19
2019-03-12T16:50:34.441Z,-6.27
2019-03-12T16:53:00.661Z,-6.40
2019-03-12T16:55:26.892Z,-6.63
2019-03-12T16:57:53.126Z,-6.89
2019-03-12T17:03:33.023Z,-7.05
2019-03-12T17:05:59.264Z,-7.20
2019-03-12T17:08:25.519Z,-7.38
2019-03-12T17:10:58.480Z,-7.52
2019-03-12T17:13:19.911Z,-7.58
2019-03-12T17:15:46.171Z,-7.70
2019-03-12T17:18:12.436Z,-7.89
2019-03-12T17:20:38.672Z,-7.96
2019-03-12T17:23:04.932Z,-8.02
2019-03-12T17:25:31.194Z,-8.14
2019-03-12T17:27:57.431Z,-8.22
2019-03-12T17:31:04.996Z,-8.32
2019-03-12T17:33:31.274Z,-8.47
2019-03-12T17:35:57.523Z,-8.71
2019-03-12T17:38:23.817Z,-8.91
2019-03-12T17:40:50.068Z,-9.03
2019-03-12T17:43:16.304Z,-9.13
2019-03-12T17:48:39.267Z,-9.24
2019-03-12T17:51:05.539Z,-9.33
2019-03-12T17:53:31.777Z,-9.35
2019-03-12T17:55:58.334Z,-9.37
2019-03-12T17:58:24.601Z,-9.54
2019-03-12T18:00:50.843Z,-9.78
2019-03-12T18:03:17.306Z,-9.94
2019-03-12T18:05:43.542Z,-10.03
2019-03-12T18:08:09.790Z,-10.12
2019-03-12T18:10:36.110Z,-10.26
2019-03-12T18:13:02.328Z,-10.44
2019-03-12T18:15:28.563Z,-10.54
2019-03-12T18:17:54.828Z,-10.63
2019-03-12T18:23:34.911Z,-10.99
2019-03-12T18:26:42.467Z,-11.10
2019-03-12T18:29:08.733Z,-11.25
2019-03-12T18:31:34.977Z,-11.45
2019-03-12T18:34:01.234Z,-11.63
2019-03-12T18:36:27.483Z,-11.79
2019-03-12T18:38:53.779Z,-12.04
2019-03-12T18:41:20.132Z,-12.21
2019-03-12T18:43:46.457Z,-12.38
2019-03-12T18:46:12.712Z,-12.42
2019-03-12T18:48:38.947Z,-12.47
2019-03-12T18:51:05.188Z,-12.57
2019-03-12T18:53:31.438Z,-12.69
2019-03-12T18:56:17.432Z,-12.77
2019-03-12T18:58:43.689Z,-12.86
2019-03-12T19:01:10.047Z,-12.97
2019-03-12T19:03:36.311Z,-13.08
2019-03-12T19:06:02.557Z,-13.18
2019-03-12T19:08:28.787Z,-13.22
2019-03-12T19:10:55.047Z,-13.29
2019-03-12T19:13:21.296Z,-13.37
2019-03-12T19:15:47.536Z,-13.48
2019-03-12T19:18:13.798Z,-13.57
2019-03-12T19:20:40.050Z,-13.64
2019-03-12T19:23:06.299Z,-13.73
2019-03-12T19:28:45.887Z,-13.96
2019-03-12T19:36:34.085Z,-14.22
2019-03-12T19:39:00.315Z,-14.35
2019-03-12T19:41:26.566Z,-14.47
2019-03-12T19:43:53.821Z,-14.57
2019-03-12T19:46:27.689Z,-14.78
2019-03-12T19:48:53.977Z,-14.92
2019-03-12T19:51:20.261Z,-15.05
2019-03-12T19:53:46.490Z,-15.18
2019-03-12T19:56:12.753Z,-15.07
2019-03-12T19:58:38.996Z,-15.14
2019-03-12T20:01:05.223Z,-15.19
2019-03-12T20:03:31.470Z,-15.27
2019-03-12T20:05:57.688Z,-15.32
2019-03-12T20:08:23.940Z,-15.34
2019-03-12T20:17:30.575Z,-15.59
2019-03-12T20:20:36.338Z,-15.62
2019-03-12T20:23:42.087Z,-15.67
2019-03-12T20:26:47.832Z,-15.72
2019-03-12T20:29:46.712Z,-15.73
2019-03-12T20:32:52.484Z,-15.73
2019-03-12T20:36:00.038Z,-15.84
2019-03-12T20:39:05.825Z,-16.00
2019-03-12T20:42:11.576Z,-16.01
2019-03-12T20:45:17.309Z,-15.97
2019-03-12T20:48:23.036Z,-15.95
2019-03-12T20:51:30.596Z,-15.99
2019-03-12T20:54:36.337Z,-16.05
2019-03-12T20:57:43.896Z,-16.11
2019-03-12T21:00:49.645Z,-16.06
2019-03-12T21:03:55.443Z,-16.03
2019-03-12T21:07:02.338Z,-16.02
2019-03-12T21:10:08.249Z,-16.05
2019-03-12T21:13:14.015Z,-15.99
2019-03-12T21:19:20.372Z,-16.06
2019-03-12T21:22:26.071Z,-16.12
2019-03-12T21:25:31.819Z,-16.18
2019-03-12T21:28:37.587Z,-16.30
2019-03-12T21:31:03.842Z,-16.50
2019-03-12T21:33:30.188Z,-16.68
2019-03-12T21:35:56.436Z,-16.77
2019-03-12T21:38:22.653Z,-16.85
2019-03-12T21:43:42.495Z,-17.01
2019-03-12T21:46:08.774Z,-17.09
2019-03-12T21:48:34.988Z,-17.10
2019-03-12T21:51:01.232Z,-17.12
2019-03-12T21:53:27.482Z,-17.17
2019-03-12T21:55:53.707Z,-17.27
2019-03-12T21:58:19.933Z,-17.31
2019-03-12T22:00:46.188Z,-17.44
2019-03-12T22:03:12.432Z,-17.59
2019-03-12T22:05:38.673Z,-17.64
2019-03-12T22:08:04.909Z,-17.64
2019-03-12T22:10:31.165Z,-17.64
2019-03-12T22:12:57.395Z,-17.61
2019-03-12T22:15:23.641Z,-17.61
2019-03-12T22:17:49.888Z,-17.64
2019-03-12T22:20:16.125Z,-17.71
2019-03-12T22:23:02.115Z,-17.78
2019-03-12T22:25:28.367Z,-17.86
2019-03-12T22:27:54.592Z,-17.90
2019-03-12T22:31:02.151Z,-17.97
2019-03-12T22:33:28.367Z,-18.04
2019-03-12T22:35:54.639Z,-18.11
2019-03-12T22:38:20.856Z,-18.13
2019-03-12T22:40:47.125Z,-18.16
2019-03-12T22:43:13.355Z,-18.21
2019-03-12T22:45:39.607Z,-18.27
2019-03-12T22:48:05.846Z,-18.29
2019-03-12T22:50:32.077Z,-18.37
2019-03-12T22:52:58.326Z,-18.42
2019-03-12T22:55:24.548Z,-18.49
2019-03-12T22:57:50.792Z,-18.58
2019-03-12T23:03:04.731Z,-18.62
2019-03-12T23:05:30.959Z,-18.68
2019-03-12T23:07:57.221Z,-18.77
2019-03-12T23:13:11.072Z,-18.85
2019-03-12T23:15:37.300Z,-18.92
2019-03-12T23:18:03.543Z,-19.01
2019-03-12T23:20:29.769Z,-19.07
2019-03-12T23:22:56.011Z,-19.14
2019-03-12T23:25:22.338Z,-19.24
2019-03-12T23:27:48.582Z,-19.44
2019-03-12T23:30:34.575Z,-19.48
2019-03-12T23:33:00.815Z,-19.47
2019-03-12T23:35:27.050Z,-19.43
2019-03-12T23:37:53.273Z,-19.37
2019-03-12T23:40:19.511Z,-19.30
2019-03-12T23:42:45.741Z,-19.26
2019-03-12T23:45:53.277Z,-19.11
2019-03-12T23:48:19.530Z,-18.81
2019-03-12T23:50:45.786Z,-18.45
2019-03-12T23:53:12.020Z,-18.35
2019-03-12T23:55:38.378Z,-18.32
2019-03-12T23:58:04.723Z,-18.28
